Tuesday, March 3, 2015, 9:59 AM EST
Back to Local

KGKJ, Port Meadville Airport

Location: Meadville, PA, United States Lat: 41.633
Local Time: 9:59 AM EST (14:59 GMT) Lon: -80.217
Time Zone: US/Eastern Elev: 1400 ft

Show me the last for .
Show Coded

Time T Td Feel RH Dir Speed Gust Alt SLP Vis Weather Sky Remarks
2015-03-03 08:53 19 8 11 61 Variable 6 - 30.13 30.19 0 None
2015-03-03 07:53 18 8 9 64 Variable 7 - 30.15 30.22 0 None
2015-03-03 06:53 17 8 9 67 Variable 6 - 30.19 30.26 0 6-hr Min Temp (7am): 12.9°F
6-hr Max Temp (7am): 17.1°F
2015-03-03 05:53 17 8 10 67 130° 5 - 30.25 30.32 0 None
2015-03-03 04:53 16 8 10 70 Variable 3 - 30.27 30.34 0 None
2015-03-03 03:53 15 7 9 69 Variable 3 - 30.28 30.34 0 None
2015-03-03 02:53 16 8 10 70 120° 3 - 30.29 30.35 0 None
2015-03-03 01:53 14 8 - 76 - Calm - 30.31 30.37 0 None
2015-03-03 00:53 14 7 8 73 140° 3 - 30.32 30.39 0 6-hr Min Temp (1am): 12.0°F
6-hr Max Temp (1am): 19.9°F
2015-03-02 23:53 13 7 4 76 100° 6 - 30.33 30.40 0 24-hr Min Temp (12am): 12.0°F
24-hr Max Temp (12am): 26.1°F
2015-03-02 22:53 15 7 9 69 100° 3 - 30.36 30.43 0 None
2015-03-02 21:53 16 7 10 66 60° 3 - 30.37 30.44 0 None
2015-03-02 20:53 17 7 - 63 - Calm - 30.38 30.45 0 None
2015-03-02 19:53 18 7 - 61 - Calm - 30.38 30.45 0 None
2015-03-02 18:53 19 7 - 58 - Calm - 30.39 30.45 0 6-hr Min Temp (7pm): 19.0°F
6-hr Max Temp (7pm): 26.1°F
2015-03-02 17:53 22 7 13 51 300° 8 - 30.38 30.45 0 None
2015-03-02 16:53 24 7 14 47 300° 10 - 30.38 30.44 0 None
2015-03-02 15:53 25 8 14 47 280° 12 - 30.36 30.42 0 None
2015-03-02 14:53 25 8 13 47 270° 14 - 30.36 30.42 0 None
2015-03-02 13:53 25 10 14 52 270° 13 - 30.35 30.41 0 None
2015-03-02 12:53 25 11 14 54 280° 12 - 30.37 30.42 0 6-hr Precip Total (1pm): 0.00"
6-hr Min Temp (1pm): 19.0°F
6-hr Max Temp (1pm): 25.0°F
2015-03-02 11:53 24 11 14 56 290° 9 - 30.36 30.42 0 None
2015-03-02 10:53 23 11 12 59 280° 10 - 30.35 30.40 0 None

Support USWX by starting your Amazon purchase here.